TimeEST,TemperatureF,Dew PointF,Humidity,Sea Level PressureIn,VisibilityMPH,Wind Direction,Wind SpeedMPH,Gust SpeedMPH,PrecipitationIn,Events,Conditions,WindDirDegrees,DateUTC
12:56 AM,35.1,30.0,82,30.27,10.0,North,3.5,-,N/A,,Overcast,350,2012-11-16 05:56:00
1:56 AM,35.1,30.0,82,30.27,10.0,Calm,Calm,-,N/A,,Overcast,0,2012-11-16 06:56:00
2:56 AM,36.0,30.9,82,30.27,10.0,North,3.5,-,N/A,,Overcast,350,2012-11-16 07:56:00
3:56 AM,37.0,30.9,79,30.27,10.0,North,4.6,-,N/A,,Overcast,360,2012-11-16 08:56:00
4:56 AM,36.0,30.0,79,30.27,10.0,NNW,3.5,-,N/A,,Overcast,340,2012-11-16 09:56:00
5:56 AM,32.0,27.0,82,30.28,10.0,Calm,Calm,-,N/A,,Mostly Cloudy,0,2012-11-16 10:56:00
6:56 AM,33.1,28.0,82,30.29,10.0,North,3.5,-,N/A,,Mostly Cloudy,350,2012-11-16 11:56:00
7:56 AM,39.0,34.0,82,30.30,10.0,NNW,5.8,-,N/A,,Mostly Cloudy,330,2012-11-16 12:56:00
8:56 AM,42.1,33.1,70,30.30,10.0,North,6.9,-,N/A,,Overcast,360,2012-11-16 13:56:00
9:56 AM,45.0,32.0,60,30.31,10.0,NNE,9.2,-,N/A,,Mostly Cloudy,30,2012-11-16 14:56:00
10:56 AM,45.0,28.0,52,30.31,10.0,North,11.5,-,N/A,,Overcast,360,2012-11-16 15:56:00
11:56 AM,45.0,27.0,49,30.30,10.0,North,10.4,-,N/A,,Overcast,350,2012-11-16 16:56:00
12:56 PM,46.0,26.1,46,30.29,10.0,North,6.9,-,N/A,,Overcast,360,2012-11-16 17:56:00
1:56 PM,46.0,24.1,42,30.29,10.0,North,6.9,-,N/A,,Overcast,10,2012-11-16 18:56:00
2:56 PM,46.0,26.1,46,30.29,10.0,North,8.1,-,N/A,,Overcast,10,2012-11-16 19:56:00
3:56 PM,46.0,27.0,47,30.31,10.0,NNW,5.8,-,N/A,,Overcast,340,2012-11-16 20:56:00
4:56 PM,43.0,28.0,56,30.32,10.0,NNW,5.8,-,N/A,,Mostly Cloudy,330,2012-11-16 21:56:00
5:56 PM,42.1,28.0,58,30.33,10.0,NW,3.5,-,N/A,,Mostly Cloudy,310,2012-11-16 22:56:00
6:56 PM,39.9,28.0,63,30.34,10.0,NNW,4.6,-,N/A,,Scattered Clouds,330,2012-11-16 23:56:00
7:56 PM,39.0,27.0,62,30.36,10.0,NNW,6.9,-,N/A,,Partly Cloudy,340,2012-11-17 00:56:00
8:56 PM,39.0,26.1,60,30.37,10.0,North,8.1,-,N/A,,Partly Cloudy,350,2012-11-17 01:56:00
9:56 PM,39.0,27.0,62,30.38,10.0,North,8.1,-,N/A,,Clear,350,2012-11-17 02:56:00
10:56 PM,37.0,27.0,67,30.41,10.0,North,5.8,-,N/A,,Clear,350,2012-11-17 03:56:00
11:56 PM,37.0,27.0,67,30.41,10.0,North,4.6,-,N/A,,Clear,350,2012-11-17 04:56:00